Time;durP1;ratioP1;P1;durP2;ratioP2;P2;SDS_P1;SDS_P2;PMS_P1;PMS_P2;Temp;Humidity;BMP_temperature;BMP_pressure;BME280_temperature;BME280_humidity;BME280_pressure;Samples;Min_cycle;Max_cycle;Signal;HPM_P1;HPM_P2
2021/11/29 00:01:56;;;;;;;95.72;54.35;;;;;;;-0.57;94.38;97746.13;1781981;78;20979;-77
2021/11/29 00:04:24;;;;;;;86.47;50.92;;;;;;;-0.58;94.32;97738.05;1781254;78;20944;-77
2021/11/29 00:06:51;;;;;;;93.37;52.80;;;;;;;-0.55;94.38;97745.63;1785721;78;21072;-77
2021/11/29 00:09:18;;;;;;;102.35;59.38;;;;;;;-0.54;94.41;97749.86;1785399;79;21143;-77
2021/11/29 00:11:45;;;;;;;88.12;53.83;;;;;;;-0.52;94.53;97739.12;1784086;78;20955;-77
2021/11/29 00:14:11;;;;;;;101.20;55.27;;;;;;;-0.56;94.38;97738.39;1785496;78;21018;-77
2021/11/29 00:16:38;;;;;;;98.70;57.27;;;;;;;-0.56;94.41;97740.09;1782983;79;20991;-77
2021/11/29 00:19:05;;;;;;;98.47;56.05;;;;;;;-0.55;94.45;97743.07;1783113;79;21495;-76
2021/11/29 00:21:34;;;;;;;99.90;55.40;;;;;;;-0.54;94.49;97742.17;1784658;79;25260;-77
2021/11/29 00:24:02;;;;;;;88.00;50.25;;;;;;;-0.55;94.52;97735.38;1786652;78;21067;-77
2021/11/29 00:26:28;;;;;;;92.95;54.58;;;;;;;-0.54;94.52;97734.48;1787047;78;21047;-76
2021/11/29 00:28:55;;;;;;;89.67;49.23;;;;;;;-0.56;94.49;97741.38;1772484;79;20981;-76
2021/11/29 00:31:23;;;;;;;87.80;48.23;;;;;;;-0.59;94.52;97742.31;1771302;80;21068;-76
2021/11/29 00:33:50;;;;;;;80.60;47.43;;;;;;;-0.59;94.63;97742.77;1770848;79;21001;-77
2021/11/29 00:36:16;;;;;;;71.15;41.85;;;;;;;-0.60;94.73;97739.82;1798655;78;22190;-77
2021/11/29 00:38:44;;;;;;;72.80;43.33;;;;;;;-0.62;94.90;97737.75;1793777;78;21635;-77
2021/11/29 00:41:11;;;;;;;;;;;;;;;-0.63;94.84;97729.67;1785095;78;21074;-77
2021/11/29 00:43:38;;;;;;;73.62;41.42;;;;;;;-0.64;95.23;97735.67;1783575;78;21131;-77
2021/11/29 00:46:05;;;;;;;73.10;42.08;;;;;;;-0.67;95.11;97734.08;1781126;79;20944;-80
2021/11/29 00:48:32;;;;;;;66.97;38.70;;;;;;;-0.68;95.22;97725.53;1779272;80;21029;-78
2021/11/29 00:50:59;;;;;;;75.40;44.75;;;;;;;-0.68;95.25;97730.65;1784041;78;21004;-76
2021/11/29 00:53:26;;;;;;;65.67;39.40;;;;;;;-0.67;95.11;97731.52;1782759;78;20992;-76
2021/11/29 00:55:53;;;;;;;74.55;42.90;;;;;;;-0.66;95.16;97737.47;1781848;78;21879;-77
2021/11/29 00:58:19;;;;;;;63.40;37.95;;;;;;;-0.66;95.05;97732.34;1782362;80;21097;-76
2021/11/29 01:00:46;;;;;;;61.88;37.40;;;;;;;-0.65;95.09;97731.45;1783445;78;20971;-77
2021/11/29 01:03:13;;;;;;;69.37;40.03;;;;;;;-0.69;95.16;97734.11;1783291;78;20956;-76
2021/11/29 01:05:39;;;;;;;64.83;39.23;;;;;;;-0.70;95.08;97732.45;1775221;79;20991;-76
2021/11/29 01:08:06;;;;;;;73.83;40.45;;;;;;;-0.71;95.18;97738.45;1784600;78;21545;-77
2021/11/29 01:10:33;;;;;;;64.83;37.87;;;;;;;-0.73;95.25;97727.44;1780663;78;20983;-76
2021/11/29 01:13:00;;;;;;;67.43;40.90;;;;;;;-0.75;95.46;97727.92;1785513;78;20985;-76
2021/11/29 01:15:32;;;;;;;63.02;39.13;;;;;;;-0.78;95.38;97733.60;1784106;78;21291;-76
2021/11/29 01:18:07;;;;;;;57.53;38.50;;;;;;;-0.78;95.47;97729.76;1787418;78;21036;-77
2021/11/29 01:20:28;;;;;;;60.30;38.88;;;;;;;-0.78;95.51;97731.04;1781740;78;21090;-76
2021/11/29 01:22:55;;;;;;;70.42;40.98;;;;;;;-0.80;95.61;97728.52;1784341;78;20973;-76
2021/11/29 01:25:21;;;;;;;61.37;36.83;;;;;;;-0.81;95.53;97726.85;1781362;79;21099;-76
2021/11/29 01:27:48;;;;;;;59.18;34.75;;;;;;;-0.78;95.54;97730.59;1781578;78;22553;-77
2021/11/29 01:30:15;;;;;;;60.83;38.13;;;;;;;-0.76;95.49;97727.51;1782136;79;21019;-76
2021/11/29 01:32:41;;;;;;;58.78;35.48;;;;;;;-0.72;95.51;97735.50;1757064;80;21060;-77
2021/11/29 01:35:08;;;;;;;60.87;35.07;;;;;;;-0.68;95.46;97734.50;1784720;79;20977;-76
2021/11/29 01:37:36;;;;;;;59.35;33.70;;;;;;;-0.68;95.55;97738.34;1750439;80;20961;-76
2021/11/29 01:40:06;;;;;;;56.65;33.15;;;;;;;-0.71;95.55;97738.89;1750062;81;20998;-77
2021/11/29 01:42:33;;;;;;;60.28;33.73;;;;;;;-0.73;95.56;97740.25;1750463;81;20977;-76
2021/11/29 01:45:00;;;;;;;51.13;32.00;;;;;;;-0.73;95.65;97742.81;1751339;81;21030;-76
2021/11/29 01:47:28;;;;;;;46.28;29.63;;;;;;;-0.72;95.64;97734.67;1751898;81;20965;-77
2021/11/29 01:49:55;;;;;;;50.00;31.40;;;;;;;-0.69;95.67;97739.69;1764535;80;21067;-76
2021/11/29 01:52:22;;;;;;;48.43;31.00;;;;;;;-0.66;95.68;97737.47;1801066;78;20917;-76
2021/11/29 01:54:49;;;;;;;48.85;29.65;;;;;;;-0.61;95.68;97736.87;1800399;78;21068;-76
2021/11/29 01:57:16;;;;;;;49.75;29.80;;;;;;;-0.60;95.63;97732.96;1785541;79;21113;-76
2021/11/29 01:59:43;;;;;;;41.55;26.97;;;;;;;-0.59;95.52;97731.23;1784353;78;21590;-76
2021/11/29 02:02:12;;;;;;;46.23;29.10;;;;;;;-0.59;95.52;97726.10;1785345;78;20955;-76
2021/11/29 02:04:41;;;;;;;45.52;28.67;;;;;;;-0.60;95.55;97716.75;1782494;79;21060;-77
2021/11/29 02:07:10;;;;;;;43.15;25.50;;;;;;;-0.62;95.59;97721.09;1784695;78;21041;-76
2021/11/29 02:09:36;;;;;;;41.53;26.50;;;;;;;-0.60;95.68;97712.91;1784079;79;21092;-77
2021/11/29 02:12:04;;;;;;;48.00;28.07;;;;;;;-0.60;95.66;97703.94;1784330;78;20913;-76
2021/11/29 02:14:33;;;;;;;39.75;26.93;;;;;;;-0.61;95.74;97699.71;1785826;79;21031;-76
2021/11/29 02:17:00;;;;;;;45.17;27.27;;;;;;;-0.62;95.76;97702.69;1782976;78;20952;-77
2021/11/29 02:19:26;;;;;;;41.65;24.95;;;;;;;-0.60;95.81;97698.81;1785107;78;21074;-77
2021/11/29 02:21:53;;;;;;;42.88;26.93;;;;;;;-0.59;95.89;97703.03;1779731;79;21554;-76
2021/11/29 02:24:20;;;;;;;45.45;25.88;;;;;;;-0.62;96.09;97703.14;1784038;79;21044;-76
2021/11/29 02:26:46;;;;;;;44.98;26.27;;;;;;;-0.60;96.03;97702.20;1783356;79;20992;-76
2021/11/29 02:29:16;;;;;;;43.42;27.10;;;;;;;-0.59;95.99;97704.31;1788658;78;20964;-77
2021/11/29 02:31:46;;;;;;;47.15;27.48;;;;;;;-0.58;96.01;97702.16;1784058;79;20999;-77
2021/11/29 02:34:25;;;;;;;40.58;25.77;;;;;;;-0.59;95.93;97700.47;1784464;79;21068;-76
2021/11/29 02:36:56;;;;;;;43.90;26.68;;;;;;;-0.57;95.98;97695.69;1783883;79;20987;-76
2021/11/29 02:39:23;;;;;;;40.20;25.50;;;;;;;-0.53;95.97;97693.88;1786026;79;20885;-76
2021/11/29 02:41:53;;;;;;;41.35;24.98;;;;;;;-0.53;95.95;97692.59;1788250;78;21058;-77
2021/11/29 02:44:20;;;;;;;39.03;25.20;;;;;;;-0.53;95.94;97700.28;1784882;79;21586;-77
2021/11/29 02:46:47;;;;;;;37.98;24.92;;;;;;;-0.52;95.96;97695.53;1784041;79;21058;-76
2021/11/29 02:49:15;;;;;;;43.50;24.47;;;;;;;-0.52;95.98;97694.25;1782566;79;21067;-77
2021/11/29 02:51:52;;;;;;;38.48;24.47;;;;;;;-0.53;96.09;97688.30;1783008;79;21598;-76
2021/11/29 02:54:29;;;;;;;38.95;25.00;;;;;;;-0.55;96.14;97684.11;1782039;79;21601;-76
2021/11/29 02:57:00;;;;;;;36.90;23.47;;;;;;;-0.56;96.14;97687.55;1783158;79;20940;-76
2021/11/29 02:59:31;;;;;;;34.63;21.12;;;;;;;-0.56;96.20;97695.23;1786371;78;21909;-76
2021/11/29 03:02:02;;;;;;;28.02;20.25;;;;;;;-0.56;96.30;97688.83;1759011;79;20952;-77
2021/11/29 03:04:32;;;;;;;32.90;22.32;;;;;;;-0.55;96.40;97690.52;1782297;78;21501;-77
2021/11/29 03:07:00;;;;;;;29.98;20.05;;;;;;;-0.56;96.28;97683.28;1785261;79;22310;-76
2021/11/29 03:09:28;;;;;;;31.05;19.55;;;;;;;-0.55;96.30;97681.09;1782779;78;20982;-76
2021/11/29 03:11:55;;;;;;;29.20;20.25;;;;;;;-0.55;96.35;97687.50;1754349;79;21896;-77
2021/11/29 03:14:22;;;;;;;27.70;19.65;;;;;;;-0.55;96.36;97673.86;1786123;79;21628;-77
2021/11/29 03:16:57;;;;;;;27.75;19.02;;;;;;;-0.57;96.36;97673.06;1759206;79;20941;-76
2021/11/29 03:19:23;;;;;;;28.67;18.15;;;;;;;-0.55;96.36;97676.42;1780866;78;21511;-77
2021/11/29 03:21:50;;;;;;;29.82;19.35;;;;;;;-0.55;96.46;97667.00;1783907;79;20962;-76
2021/11/29 03:24:16;;;;;;;26.57;17.97;;;;;;;-0.55;96.43;97671.30;1783994;79;21149;-76
2021/11/29 03:26:43;;;;;;;24.70;16.73;;;;;;;-0.52;96.50;97672.02;1781756;79;21114;-77
2021/11/29 03:29:14;;;;;;;30.15;18.45;;;;;;;-0.51;96.42;97672.84;1783839;79;20956;-77
2021/11/29 03:31:43;;;;;;;24.92;17.02;;;;;;;-0.49;96.45;97671.07;1785088;79;20995;-76
2021/11/29 03:34:14;;;;;;;26.10;18.15;;;;;;;-0.47;96.41;97664.17;1784267;78;21050;-77
2021/11/29 03:36:43;;;;;;;26.70;18.65;;;;;;;-0.45;96.38;97677.75;1783160;78;21120;-77
2021/11/29 03:39:15;;;;;;;25.95;17.50;;;;;;;-0.44;96.42;97664.05;1785390;79;21094;-77
2021/11/29 03:41:43;;;;;;;21.17;15.25;;;;;;;-0.41;96.38;97668.24;1753654;80;21565;-77
2021/11/29 03:44:11;;;;;;;26.05;16.90;;;;;;;-0.41;96.37;97662.66;1758947;80;20992;-77
2021/11/29 03:46:38;;;;;;;26.02;17.57;;;;;;;-0.42;96.37;97666.13;1760155;79;20989;-77
2021/11/29 03:49:05;;;;;;;27.48;17.73;;;;;;;-0.42;96.46;97669.97;1762358;80;21906;-77
2021/11/29 03:51:33;;;;;;;25.92;16.90;;;;;;;-0.44;96.49;97666.63;1761738;79;20980;-77
2021/11/29 03:53:59;;;;;;;26.65;17.20;;;;;;;-0.43;96.51;97667.00;1761383;80;21282;-77
2021/11/29 03:56:26;;;;;;;26.00;17.48;;;;;;;-0.42;96.52;97664.84;1764400;79;21017;-77
2021/11/29 03:58:53;;;;;;;24.50;17.00;;;;;;;-0.39;96.55;97654.48;1761848;80;22468;-76
2021/11/29 04:01:19;;;;;;;24.18;16.60;;;;;;;-0.34;96.51;97660.25;1787312;78;21064;-77
2021/11/29 04:03:46;;;;;;;26.13;17.93;;;;;;;-0.34;96.47;97656.41;1782377;78;21340;-76
2021/11/29 04:06:13;;;;;;;21.37;15.95;;;;;;;-0.34;96.41;97661.53;1779604;78;21062;-77
2021/11/29 04:08:40;;;;;;;24.43;16.80;;;;;;;-0.29;96.57;97657.08;1782241;79;20987;-77
2021/11/29 04:11:06;;;;;;;21.97;15.33;;;;;;;-0.26;96.48;97659.98;1784330;79;20937;-77
2021/11/29 04:13:34;;;;;;;21.70;16.20;;;;;;;-0.27;96.39;97663.45;1783087;80;22382;-77
2021/11/29 04:16:01;;;;;;;23.85;16.12;;;;;;;-0.26;96.41;97660.81;1757219;79;21047;-77
2021/11/29 04:18:28;;;;;;;22.50;15.28;;;;;;;-0.21;96.56;97654.69;1768151;79;21036;-77
2021/11/29 04:20:56;;;;;;;18.70;13.98;;;;;;;-0.15;96.60;97654.45;1782584;78;20925;-77
2021/11/29 04:23:23;;;;;;;19.48;14.05;;;;;;;-0.13;96.56;97644.98;1782920;78;21062;-77
2021/11/29 04:25:55;;;;;;;16.75;12.20;;;;;;;-0.13;96.49;97643.70;1783651;78;21888;-77
2021/11/29 04:28:19;;;;;;;16.02;12.40;;;;;;;-0.07;96.61;97638.33;1783471;78;21055;-78
2021/11/29 04:30:46;;;;;;;18.95;12.95;;;;;;;-0.07;96.50;97647.31;1783216;79;21611;-76
2021/11/29 04:33:12;;;;;;;16.55;11.95;;;;;;;-0.07;96.35;97655.01;1782523;79;21027;-76
2021/11/29 04:35:39;;;;;;;15.72;11.95;;;;;;;-0.12;96.29;97651.77;1752788;81;20997;-78
2021/11/29 04:38:06;;;;;;;15.98;13.18;;;;;;;-0.09;96.57;97659.36;1763647;81;21073;-77
2021/11/29 04:40:34;;;;;;;18.35;12.25;;;;;;;-0.07;96.50;97660.14;1782657;79;21040;-78
2021/11/29 04:43:01;;;;;;;14.95;11.78;;;;;;;-0.03;96.55;97664.25;1781094;80;20944;-78
2021/11/29 04:45:29;;;;;;;14.83;11.40;;;;;;;-0.03;96.40;97664.25;1783684;78;20997;-77
2021/11/29 04:47:56;;;;;;;15.48;11.97;;;;;;;-0.07;96.30;97663.98;1785339;78;20942;-77
2021/11/29 04:50:23;;;;;;;13.48;10.90;;;;;;;-0.09;96.42;97654.22;1785138;79;21761;-77
2021/11/29 04:52:50;;;;;;;14.07;10.00;;;;;;;-0.09;96.43;97655.50;1780302;79;21042;-77
2021/11/29 04:55:17;;;;;;;13.13;10.95;;;;;;;-0.08;96.45;97658.48;1781335;79;21073;-77
2021/11/29 04:57:43;;;;;;;15.05;10.93;;;;;;;-0.13;96.49;97653.51;1759513;80;21508;-80
2021/11/29 05:00:14;;;;;;;16.57;11.07;;;;;;;-0.14;96.72;97650.98;1782918;80;21050;-77
2021/11/29 05:02:41;;;;;;;14.10;10.70;;;;;;;-0.21;96.52;97650.39;1782132;78;21078;-77
2021/11/29 05:05:08;;;;;;;14.00;10.48;;;;;;;-0.24;96.60;97643.64;1760948;81;21028;-77
2021/11/29 05:07:35;;;;;;;14.73;10.98;;;;;;;-0.28;96.68;97647.23;1756184;80;21013;-77
2021/11/29 05:10:04;;;;;;;15.85;11.35;;;;;;;-0.30;96.71;97651.57;1755173;80;20953;-78
2021/11/29 05:12:31;;;;;;;16.07;11.48;;;;;;;-0.32;96.78;97640.52;1780108;79;21034;-77
2021/11/29 05:14:57;;;;;;;15.10;11.60;;;;;;;-0.34;96.85;97647.43;1782142;78;21074;-77
2021/11/29 05:17:24;;;;;;;15.13;11.57;;;;;;;-0.37;96.88;97641.58;1783164;79;21011;-72
2021/11/29 05:19:51;;;;;;;16.57;11.48;;;;;;;-0.40;96.97;97645.09;1784244;80;21059;-81
2021/11/29 05:22:18;;;;;;;14.85;11.83;;;;;;;-0.40;96.93;97641.25;1780362;78;20956;-81
2021/11/29 05:24:44;;;;;;;13.88;11.12;;;;;;;-0.39;97.08;97633.97;1784552;78;21011;-80
2021/11/29 05:27:11;;;;;;;13.70;10.87;;;;;;;-0.38;96.99;97638.19;1782542;78;21720;-80
2021/11/29 05:29:38;;;;;;;13.58;10.00;;;;;;;-0.37;97.08;97641.58;1777746;80;21020;-80
2021/11/29 05:32:06;;;;;;;14.13;9.97;;;;;;;-0.38;97.00;97633.06;1778702;80;20956;-80
2021/11/29 05:34:33;;;;;;;13.88;10.63;;;;;;;-0.37;97.05;97639.84;1753765;80;21042;-80
2021/11/29 05:37:00;;;;;;;13.00;9.23;;;;;;;-0.38;97.18;97642.48;1781714;79;20989;-80
2021/11/29 05:39:27;;;;;;;14.40;10.68;;;;;;;-0.40;97.32;97646.37;1784896;78;21076;-81
2021/11/29 05:41:54;;;;;;;12.43;9.07;;;;;;;-0.42;97.16;97648.19;1781685;79;21046;-80
2021/11/29 05:44:21;;;;;;;11.10;8.43;;;;;;;-0.42;97.21;97662.28;1784915;78;21063;-80
2021/11/29 05:46:48;;;;;;;13.35;10.05;;;;;;;-0.42;97.31;97658.44;1779930;80;28254;-80
2021/11/29 05:49:14;;;;;;;11.33;8.58;;;;;;;-0.44;97.44;97658.93;1785231;78;21042;-80
2021/11/29 05:51:41;;;;;;;13.37;9.07;;;;;;;-0.44;97.52;97666.63;1786452;79;21175;-81
2021/11/29 05:54:08;;;;;;;10.83;9.13;;;;;;;-0.44;97.52;97665.79;1783074;79;21042;-81
2021/11/29 05:56:35;;;;;;;10.35;8.33;;;;;;;-0.42;97.60;97669.97;1784711;79;22099;-80
2021/11/29 05:59:02;;;;;;;13.98;9.35;;;;;;;-0.42;97.61;97669.11;1783957;79;21561;-80
2021/11/29 06:01:28;;;;;;;10.67;8.33;;;;;;;-0.42;97.55;97667.41;1783203;79;21074;-80
2021/11/29 06:03:55;;;;;;;12.15;9.35;;;;;;;-0.43;97.65;97668.28;1784215;79;21666;-80
2021/11/29 06:06:22;;;;;;;10.97;8.10;;;;;;;-0.41;97.55;97672.92;1784292;79;20987;-80
2021/11/29 06:08:49;;;;;;;14.10;10.28;;;;;;;-0.42;97.59;97668.69;1782760;79;20995;-80
2021/11/29 06:11:15;;;;;;;13.50;8.30;;;;;;;-0.42;97.54;97667.41;1783485;79;20948;-80
2021/11/29 06:13:42;;;;;;;13.65;9.35;;;;;;;-0.40;97.51;97668.17;1780622;79;20901;-80
2021/11/29 06:16:09;;;;;;;13.03;9.60;;;;;;;-0.38;97.56;97668.95;1783388;79;21064;-80
2021/11/29 06:18:36;;;;;;;13.07;9.80;;;;;;;-0.40;97.63;97669.91;1784789;80;21023;-80
2021/11/29 06:21:03;;;;;;;13.95;11.12;;;;;;;-0.42;97.67;97664.84;1781073;79;21007;-80
2021/11/29 06:23:32;;;;;;;13.80;10.88;;;;;;;-0.43;97.65;97675.97;1786451;78;20952;-80
2021/11/29 06:25:59;;;;;;;14.95;9.70;;;;;;;-0.42;97.63;97677.67;1766028;78;21035;-80
2021/11/29 06:28:27;;;;;;;12.75;10.28;;;;;;;-0.43;97.78;97670.84;1764125;81;21638;-80
2021/11/29 06:30:54;;;;;;;15.43;10.68;;;;;;;-0.43;97.76;97688.80;1769688;78;21341;-80
2021/11/29 06:33:21;;;;;;;14.30;10.90;;;;;;;-0.42;97.78;97682.80;1757093;80;20984;-80
2021/11/29 06:35:50;;;;;;;14.78;11.10;;;;;;;-0.43;97.85;97681.10;1784025;79;21056;-80
2021/11/29 06:38:18;;;;;;;15.43;11.18;;;;;;;-0.42;97.73;97680.23;1784281;79;21110;-80
2021/11/29 06:40:49;;;;;;;16.20;11.38;;;;;;;-0.42;97.88;97684.08;1783487;79;21089;-80
2021/11/29 06:43:21;;;;;;;14.65;10.05;;;;;;;-0.42;98.06;97674.23;1785372;79;20983;-80
2021/11/29 06:45:49;;;;;;;13.53;10.30;;;;;;;-0.43;98.00;97681.10;1783533;78;21585;-80
2021/11/29 06:48:17;;;;;;;13.68;10.18;;;;;;;-0.42;97.94;97681.93;1784644;79;20916;-80
2021/11/29 06:50:45;;;;;;;12.43;9.83;;;;;;;-0.41;97.90;97676.77;1786082;79;21115;-81
2021/11/29 06:53:12;;;;;;;13.50;10.05;;;;;;;-0.38;97.87;97675.82;1786512;79;21687;-81
2021/11/29 06:55:40;;;;;;;;;;;;;;;-0.37;97.84;97683.44;1788194;79;20939;-80
2021/11/29 06:58:07;;;;;;;15.00;10.45;;;;;;;-0.36;97.86;97687.70;1783910;79;20151;-80
2021/11/29 07:00:35;;;;;;;14.95;10.65;;;;;;;-0.35;97.88;97684.23;1786563;79;22274;-80
2021/11/29 07:03:02;;;;;;;15.68;10.58;;;;;;;-0.35;97.84;97679.10;1785568;78;21023;-80
2021/11/29 07:05:29;;;;;;;15.93;11.03;;;;;;;-0.34;97.84;97683.33;1783900;79;21046;-80
2021/11/29 07:07:57;;;;;;;14.87;10.75;;;;;;;-0.34;97.87;97688.45;1783352;78;28038;-80
2021/11/29 07:10:25;;;;;;;16.50;11.10;;;;;;;-0.32;97.86;97686.68;1782638;79;20998;-80
2021/11/29 07:12:54;;;;;;;21.82;11.90;;;;;;;-0.28;97.95;97685.70;1785874;79;28186;-80
2021/11/29 07:15:23;;;;;;;16.00;11.18;;;;;;;-0.21;97.91;97682.91;1760757;79;21627;-80
2021/11/29 07:17:50;;;;;;;17.00;11.90;;;;;;;-0.20;97.79;97682.00;1784807;78;21358;-80
2021/11/29 07:20:18;;;;;;;17.25;11.55;;;;;;;-0.21;97.69;97685.47;1785776;78;21007;-80
2021/11/29 07:22:45;;;;;;;15.55;11.10;;;;;;;-0.17;97.76;97694.70;1786682;78;21594;-80
2021/11/29 07:25:13;;;;;;;26.25;11.73;;;;;;;-0.15;97.71;97687.80;1783746;78;25141;-82
2021/11/29 07:27:40;;;;;;;14.73;11.48;;;;;;;-0.12;97.75;97692.81;1783205;79;21064;-80
2021/11/29 07:30:10;;;;;;;13.75;10.93;;;;;;;-0.08;97.72;97696.96;1783985;79;21736;-82
2021/11/29 07:32:38;;;;;;;14.60;9.78;;;;;;;-0.06;97.68;97690.02;1784932;78;21028;-84
2021/11/29 07:35:06;;;;;;;13.60;10.23;;;;;;;-0.04;97.74;97685.67;1785129;79;21030;-83
2021/11/29 07:37:33;;;;;;;12.55;10.85;;;;;;;-0.01;97.75;97695.83;1781973;79;20991;-80
2021/11/29 07:40:02;;;;;;;13.17;9.40;;;;;;;0.00;97.72;97687.25;1755096;79;21007;-80
2021/11/29 07:42:28;;;;;;;19.30;10.58;;;;;;;0.07;97.87;97692.53;1751282;80;21582;-80
2021/11/29 07:44:55;;;;;;;14.18;10.58;;;;;;;0.09;97.73;97692.03;1770535;80;21048;-79
2021/11/29 07:47:24;;;;;;;15.10;10.40;;;;;;;0.08;97.61;97692.91;1766260;80;21055;-81
2021/11/29 07:49:52;;;;;;;15.70;11.35;;;;;;;0.10;97.63;97695.43;1767154;80;21012;-82
2021/11/29 07:52:20;;;;;;;14.90;11.33;;;;;;;0.13;97.65;97698.70;1787968;78;21812;-81
2021/11/29 07:54:47;;;;;;;16.02;11.25;;;;;;;0.12;97.62;97699.61;1757645;80;21595;-83
2021/11/29 07:57:16;;;;;;;17.92;10.72;;;;;;;0.13;97.63;97699.99;1730672;81;21563;-81
2021/11/29 07:59:44;;;;;;;11.53;9.18;;;;;;;0.16;97.69;97698.59;1752882;81;21084;-86
2021/11/29 08:02:12;;;;;;;13.35;10.30;;;;;;;0.19;97.71;97697.64;1762845;80;20944;-81
2021/11/29 08:04:40;;;;;;;13.13;9.73;;;;;;;0.15;97.59;97696.93;1791627;78;20994;-81
2021/11/29 08:07:07;;;;;;;15.28;11.25;;;;;;;0.08;97.54;97698.04;1755837;80;21858;-81
2021/11/29 08:09:33;;;;;;;11.88;8.60;;;;;;;0.03;97.52;97699.97;1753928;81;21046;-81
2021/11/29 08:12:00;;;;;;;12.37;9.17;;;;;;;0.03;97.63;97702.53;1751956;81;21101;-81
2021/11/29 08:14:27;;;;;;;12.93;9.50;;;;;;;0.01;97.39;97703.03;1763018;79;21602;-80
2021/11/29 08:16:54;;;;;;;11.27;9.10;;;;;;;0.02;97.66;97711.10;1764381;80;21339;-80
2021/11/29 08:19:20;;;;;;;11.70;8.43;;;;;;;0.07;97.71;97709.21;1764498;80;21138;-84
2021/11/29 08:21:47;;;;;;;12.97;9.07;;;;;;;0.09;97.67;97710.00;1758884;80;21197;-80
2021/11/29 08:24:14;;;;;;;16.27;11.67;;;;;;;0.12;97.65;97716.30;1761971;80;20980;-80
2021/11/29 08:26:41;;;;;;;13.22;10.18;;;;;;;0.14;97.67;97713.23;1766518;78;21745;-81
2021/11/29 08:29:07;;;;;;;14.85;9.33;;;;;;;0.17;97.68;97706.70;1759046;80;22312;-80
2021/11/29 08:31:35;;;;;;;14.43;9.45;;;;;;;0.26;97.79;97711.10;1753884;81;21279;-79
2021/11/29 08:34:02;;;;;;;17.77;10.45;;;;;;;0.33;97.75;97709.50;1755857;81;29611;-79
2021/11/29 08:36:29;;;;;;;18.62;10.53;;;;;;;0.39;97.79;97705.86;1762566;80;21004;-79
2021/11/29 08:38:56;;;;;;;16.55;11.45;;;;;;;0.51;97.89;97704.13;1762035;80;20993;-80
2021/11/29 08:41:23;;;;;;;16.32;11.08;;;;;;;0.50;97.54;97703.72;1761573;80;21008;-79
2021/11/29 08:43:50;;;;;;;16.67;10.53;;;;;;;0.53;97.59;97707.45;1779437;78;21932;-80
2021/11/29 08:46:17;;;;;;;13.55;10.85;;;;;;;0.60;97.67;97705.49;1781274;79;21557;-80
2021/11/29 08:48:44;;;;;;;19.32;12.50;;;;;;;0.59;97.46;97712.37;1784760;78;21007;-80
2021/11/29 08:51:11;;;;;;;14.18;11.00;;;;;;;0.57;97.44;97711.58;1780365;79;21042;-80
2021/11/29 08:53:38;;;;;;;16.87;11.85;;;;;;;0.58;97.47;97708.11;1780573;79;20999;-80
2021/11/29 08:56:06;;;;;;;15.55;11.83;;;;;;;0.56;97.42;97711.62;1788998;79;21757;-80
2021/11/29 08:58:35;;;;;;;16.87;11.88;;;;;;;0.57;97.52;97709.47;1783775;79;20992;-79
2021/11/29 09:01:03;;;;;;;16.30;11.57;;;;;;;0.59;97.57;97712.37;1757379;79;21769;-80
2021/11/29 09:03:30;;;;;;;15.08;10.70;;;;;;;0.60;97.70;97711.46;1779813;79;21613;-80
2021/11/29 09:06:08;;;;;;;16.52;11.05;;;;;;;0.64;97.72;97713.45;1782537;78;21000;-80
2021/11/29 09:08:36;;;;;;;18.50;12.35;;;;;;;0.68;97.79;97712.91;1782533;79;21840;-79
2021/11/29 09:11:03;;;;;;;15.80;10.95;;;;;;;0.68;97.70;97718.88;1782812;79;20990;-79
2021/11/29 09:13:31;;;;;;;18.95;11.68;;;;;;;0.64;97.59;97706.61;1784106;79;21047;-78
2021/11/29 09:16:02;;;;;;;17.75;12.47;;;;;;;0.64;97.64;97710.46;1781528;79;21534;-79
2021/11/29 09:18:31;;;;;;;17.10;12.68;;;;;;;0.70;97.80;97708.52;1778372;79;21030;-79
2021/11/29 09:20:59;;;;;;;17.10;11.70;;;;;;;0.73;97.81;97699.41;1781462;78;22116;-80
2021/11/29 09:25:21;;;;;;;15.45;11.53;;;;;;;0.82;97.83;97697.77;1860661;75;22685;-82
2021/11/29 09:27:48;;;;;;;;;;;;;;;0.77;97.79;97700.97;1808392;77;21538;-78
2021/11/29 09:30:18;;;;;;;18.75;12.43;;;;;;;0.76;97.82;97705.73;1816648;77;21156;-77
2021/11/29 09:32:45;;;;;;;19.73;12.05;;;;;;;0.75;97.88;97701.47;1830390;77;20926;-76
2021/11/29 09:35:16;;;;;;;15.40;11.12;;;;;;;0.76;97.85;97701.88;1832097;77;21204;-77
2021/11/29 09:37:45;;;;;;;17.07;10.85;;;;;;;0.76;97.92;97707.02;1800863;78;21586;-77
2021/11/29 09:40:23;;;;;;;17.95;11.22;;;;;;;0.72;98.01;97700.31;1762928;78;21045;-77
2021/11/29 09:42:50;;;;;;;;;;;;;;;0.72;97.96;97706.73;1776385;79;21651;-77
2021/11/29 09:45:18;;;;;;;21.25;14.20;;;;;;;0.71;97.89;97702.50;1777513;79;20164;-77
2021/11/29 09:47:46;;;;;;;19.25;13.38;;;;;;;0.64;97.88;97697.62;1771443;79;20975;-77
2021/11/29 09:50:15;;;;;;;20.85;13.13;;;;;;;0.63;97.89;97701.06;1775383;79;21084;-77
2021/11/29 09:52:42;;;;;;;22.70;13.60;;;;;;;0.71;98.16;97703.80;1791579;78;21040;-75
2021/11/29 09:55:13;;;;;;;20.37;12.90;;;;;;;0.78;98.16;97696.20;1795695;78;21054;-75
2021/11/29 09:57:42;;;;;;;18.23;12.28;;;;;;;0.84;98.19;97696.81;1778294;79;21587;-75
2021/11/29 10:00:15;;;;;;;19.12;12.60;;;;;;;0.96;98.40;97694.65;1795475;78;21584;-76
2021/11/29 10:02:42;;;;;;;18.57;13.05;;;;;;;1.01;98.30;97683.28;1796341;78;20998;-76
2021/11/29 10:05:09;;;;;;;21.07;13.68;;;;;;;1.06;98.25;97689.04;1795867;78;21151;-77
2021/11/29 10:07:45;;;;;;;20.75;13.35;;;;;;;1.16;98.32;97680.97;1763401;78;21835;-76
2021/11/29 10:10:13;;;;;;;19.67;12.00;;;;;;;1.21;98.30;97684.19;1792563;78;21075;-77
2021/11/29 10:12:40;;;;;;;21.23;11.68;;;;;;;1.29;98.37;97678.27;1766742;78;21522;-79
2021/11/29 10:15:17;;;;;;;15.15;11.80;;;;;;;1.39;98.53;97675.67;1771303;78;21085;-76
2021/11/29 10:17:46;;;;;;;18.52;13.00;;;;;;;1.51;98.48;97682.88;1775663;79;21784;-76
2021/11/29 10:20:14;;;;;;;19.50;14.25;;;;;;;1.61;98.44;97672.19;1780891;79;21740;-76
2021/11/29 10:23:04;;;;;;;21.87;14.35;;;;;;;1.66;98.17;97675.39;1755576;79;21005;-76
2021/11/29 10:25:32;;;;;;;24.60;14.73;;;;;;;1.70;98.11;97676.92;1777695;79;21603;-76
2021/11/29 10:27:59;;;;;;;22.45;14.50;;;;;;;1.68;97.97;97674.43;1777569;79;21044;-76
2021/11/29 10:30:29;;;;;;;19.75;13.30;;;;;;;1.77;98.23;97683.48;1779314;79;21574;-77
2021/11/29 10:32:56;;;;;;;20.25;12.70;;;;;;;1.93;98.44;97684.47;1781871;79;21004;-76
2021/11/29 10:35:33;;;;;;;19.52;12.75;;;;;;;2.06;98.23;97682.61;1782793;79;21048;-77
2021/11/29 10:38:01;;;;;;;19.15;13.22;;;;;;;2.18;98.24;97680.75;1775883;79;21695;-76
2021/11/29 10:40:28;;;;;;;17.73;12.10;;;;;;;2.29;98.01;97675.94;1779724;79;21112;-76
2021/11/29 10:43:03;;;;;;;20.27;12.85;;;;;;;2.36;97.96;97678.63;1775775;79;21647;-79
2021/11/29 10:45:32;;;;;;;19.12;12.25;;;;;;;2.41;98.00;97676.68;1794644;78;21033;-76
2021/11/29 10:48:00;;;;;;;15.13;11.20;;;;;;;2.34;97.55;97679.14;1797271;78;21079;-77
2021/11/29 10:50:29;;;;;;;18.82;12.07;;;;;;;2.22;97.42;97684.87;1798077;78;21071;-77
2021/11/29 10:53:11;;;;;;;17.62;12.90;;;;;;;2.17;97.69;97684.25;1776151;78;21572;-77
2021/11/29 10:56:00;;;;;;;14.47;10.10;;;;;;;2.09;97.47;97686.33;1756630;80;20978;-76
2021/11/29 10:58:28;;;;;;;15.05;10.38;;;;;;;2.05;97.76;97682.24;1770415;79;21167;-76
2021/11/29 11:00:57;;;;;;;;;;;;;;;2.06;97.73;97677.00;1727919;79;21090;-76
2021/11/29 11:03:25;;;;;;;18.55;12.88;;;;;;;2.07;97.88;97677.84;1775323;79;20186;-76
2021/11/29 11:06:03;;;;;;;17.15;10.93;;;;;;;2.06;97.82;97672.31;1778523;79;21103;-76
2021/11/29 11:08:35;;;;;;;17.62;10.55;;;;;;;2.00;97.73;97667.83;1794456;78;21017;-76
2021/11/29 11:11:06;;;;;;;18.45;12.95;;;;;;;2.03;97.97;97671.17;1792778;78;21093;-76
2021/11/29 11:13:39;;;;;;;18.60;12.75;;;;;;;1.98;97.83;97667.05;1771087;78;21088;-76
2021/11/29 11:16:06;;;;;;;21.95;12.80;;;;;;;1.94;97.85;97664.25;1773677;78;21116;-77
2021/11/29 11:18:39;;;;;;;16.42;12.23;;;;;;;1.95;97.96;97671.52;1795135;78;20970;-77
2021/11/29 11:21:15;;;;;;;19.30;11.18;;;;;;;1.95;98.06;97667.19;1768963;80;21584;-77
2021/11/29 11:23:42;;;;;;;16.25;10.25;;;;;;;1.93;98.18;97666.45;1768729;79;21362;-76
2021/11/29 11:26:32;;;;;;;13.57;8.27;;;;;;;1.94;98.32;97667.28;1791869;78;21009;-76
2021/11/29 11:29:02;;;;;;;10.80;7.75;;;;;;;1.92;98.30;97662.19;1794482;78;21567;-77